Terminal Aerodrome Forecast
Issued by NWS Cleveland, OH

Home | Current Version | Previous Version | Text Only | Print | Product List | Glossary On
Versions: 1 2 3 4 5 6 7 8 9 10 11 12 13 14 15 16 17 18 19
764
FTUS41 KCLE 281016 AAC
TAFTOL
TAF AMD
KTOL 281016Z 2810/2906 24003KT 3SM BR SCT002 SCT200
      TEMPO 2810/2813 1/4SM FG BKN001
     FM281500 24005KT P6SM SCT030 BKN200
     FM282000 28006KT P6SM VCTS SCT040CB BKN150
     FM290000 32003KT P6SM BKN150=

USA.gov is the U.S. government's official web portal to all federal, state and local government web resources and services.